ROLR21 YMES-YMES
Flight info
| Callsign | ROLR21 |
|---|---|
| Flight time | 1h 2m |
| Altitude | 6000 |
| Route | ESL DCT WSL DCT ESL |
| Aircraft | PC21/L-SDFGRWY/S |
Departure
| Time | 2026-04-28 10:40 |
|---|---|
| Airport | RAAF Base East Sale (YMES) |
Arrival
| Time | 2026-04-28 11:42 |
|---|---|
| Airport | RAAF Base East Sale (YMES) |
| Time | Latitude | Longitude | Altitude | Speed | Heading |
|---|---|---|---|---|---|
| 2026-04-28 10:31 | -38.09901 | 147.13594 | 24 ft | 0 kts | 188° |
| 2026-04-28 10:33 | -38.09909 | 147.13592 | 26 ft | 4 kts | 189° |
| 2026-04-28 10:33 | -38.09915 | 147.13571 | 26 ft | 3 kts | 338° |
| 2026-04-28 10:33 | -38.09875 | 147.13574 | 27 ft | 5 kts | 346° |
| 2026-04-28 10:34 | -38.09865 | 147.13534 | 27 ft | 6 kts | 277° |
| 2026-04-28 10:34 | -38.09858 | 147.13468 | 25 ft | 8 kts | 277° |
| 2026-04-28 10:34 | -38.09848 | 147.13384 | 24 ft | 11 kts | 279° |
| 2026-04-28 10:34 | -38.09831 | 147.13321 | 25 ft | 5 kts | 352° |
| 2026-04-28 10:35 | -38.09802 | 147.13325 | 23 ft | 1 kts | 8° |
| 2026-04-28 10:35 | -38.09801 | 147.13325 | 23 ft | 0 kts | 8° |
| 2026-04-28 10:36 | -38.09786 | 147.13328 | 24 ft | 7 kts | 9° |
| 2026-04-28 10:36 | -38.09755 | 147.13295 | 24 ft | 10 kts | 278° |
| 2026-04-28 10:37 | -38.09743 | 147.13198 | 22 ft | 12 kts | 279° |
| 2026-04-28 10:37 | -38.09729 | 147.13087 | 19 ft | 13 kts | 279° |
| 2026-04-28 10:37 | -38.09715 | 147.12968 | 20 ft | 14 kts | 279° |
| 2026-04-28 10:37 | -38.09698 | 147.12861 | 22 ft | 11 kts | 299° |
| 2026-04-28 10:38 | -38.09657 | 147.12828 | 23 ft | 2 kts | 4° |
| 2026-04-28 10:38 | -38.09656 | 147.12828 | 23 ft | 0 kts | 4° |
| 2026-04-28 10:38 | -38.09653 | 147.12829 | 23 ft | 4 kts | 6° |
| 2026-04-28 10:38 | -38.09583 | 147.12853 | 23 ft | 11 kts | 51° |
| 2026-04-28 10:39 | -38.09582 | 147.12952 | 25 ft | 21 kts | 98° |
| 2026-04-28 10:39 | -38.09646 | 147.13467 | 23 ft | 99 kts | 99° |
| 2026-04-28 10:39 | -38.09790 | 147.14618 | 136 ft | 164 kts | 98° |
| 2026-04-28 10:39 | -38.10007 | 147.16275 | 611 ft | 205 kts | 99° |
| 2026-04-28 10:40 | -38.10287 | 147.18063 | 1688 ft | 209 kts | 110° |
| 2026-04-28 10:40 | -38.11386 | 147.19297 | 2410 ft | 233 kts | 168° |
| 2026-04-28 10:40 | -38.12899 | 147.18627 | 2897 ft | 248 kts | 232° |
| 2026-04-28 10:40 | -38.13516 | 147.16548 | 3315 ft | 263 kts | 261° |
| 2026-04-28 10:41 | -38.13747 | 147.14191 | 3704 ft | 275 kts | 266° |
| 2026-04-28 10:41 | -38.13860 | 147.11736 | 4217 ft | 281 kts | 268° |
| 2026-04-28 10:41 | -38.13820 | 147.09234 | 4458 ft | 283 kts | 279° |
| 2026-04-28 10:41 | -38.13260 | 147.06843 | 4485 ft | 285 kts | 294° |
| 2026-04-28 10:42 | -38.12363 | 147.04579 | 4397 ft | 288 kts | 298° |
| 2026-04-28 10:42 | -38.11378 | 147.02350 | 4367 ft | 289 kts | 300° |
| 2026-04-28 10:42 | -38.10348 | 147.00174 | 4430 ft | 287 kts | 301° |
| 2026-04-28 10:42 | -38.09539 | 146.97880 | 4389 ft | 288 kts | 281° |
| 2026-04-28 10:43 | -38.09942 | 146.95417 | 3862 ft | 307 kts | 237° |
| 2026-04-28 10:43 | -38.11388 | 146.93328 | 3325 ft | 318 kts | 229° |
| 2026-04-28 10:43 | -38.12867 | 146.91264 | 3310 ft | 310 kts | 229° |
| 2026-04-28 10:43 | -38.14565 | 146.89825 | 3393 ft | 307 kts | 173° |
| 2026-04-28 10:44 | -38.15454 | 146.91998 | 1800 ft | 334 kts | 75° |
| 2026-04-28 10:44 | -38.14778 | 146.94805 | 1430 ft | 317 kts | 71° |
| 2026-04-28 10:44 | -38.14099 | 146.97333 | 1531 ft | 279 kts | 70° |
| 2026-04-28 10:44 | -38.13906 | 146.98143 | 5688 ft | 20 kts | 59° |
| 2026-04-28 10:45 | -38.13926 | 146.98264 | 4715 ft | 7 kts | 189° |
| 2026-04-28 10:45 | -38.12813 | 146.98033 | 1077 ft | 297 kts | 314° |
| 2026-04-28 10:45 | -38.12357 | 146.95515 | 1042 ft | 291 kts | 276° |
| 2026-04-28 10:45 | -38.12581 | 146.93153 | 964 ft | 280 kts | 204° |
| 2026-04-28 10:46 | -38.13703 | 146.94470 | 1235 ft | 265 kts | 86° |
| 2026-04-28 10:46 | -38.12567 | 146.96186 | 977 ft | 282 kts | 16° |
| 2026-04-28 10:46 | -38.10578 | 146.96565 | 640 ft | 293 kts | 8° |
| 2026-04-28 10:46 | -38.08551 | 146.96945 | 731 ft | 257 kts | 9° |
| 2026-04-28 10:47 | -38.08102 | 146.96959 | 4949 ft | 39 kts | 339° |
| 2026-04-28 10:47 | -38.07799 | 146.96881 | 3986 ft | 55 kts | 334° |
| 2026-04-28 10:47 | -38.07317 | 146.95560 | 643 ft | 296 kts | 236° |
| 2026-04-28 10:47 | -38.08742 | 146.96273 | 447 ft | 291 kts | 101° |
| 2026-04-28 10:48 | -38.08821 | 146.96738 | 3328 ft | 143 kts | 280° |
| 2026-04-28 10:48 | -38.08985 | 146.97954 | 932 ft | 227 kts | 98° |
| 2026-04-28 10:48 | -38.09229 | 146.99414 | 1615 ft | 87 kts | 278° |
| 2026-04-28 10:48 | -38.08934 | 146.97123 | 617 ft | 289 kts | 280° |
| 2026-04-28 10:49 | -38.08521 | 146.94782 | 1859 ft | 182 kts | 284° |
| 2026-04-28 10:49 | -38.08482 | 146.94033 | 1174 ft | 226 kts | 105° |
| 2026-04-28 10:49 | -38.08902 | 146.96563 | 629 ft | 297 kts | 99° |
| 2026-04-28 10:49 | -38.09195 | 146.98543 | 2733 ft | 26 kts | 96° |
| 2026-04-28 10:50 | -38.09229 | 146.98668 | 4658 ft | 7 kts | 113° |
| 2026-04-28 10:50 | -38.09234 | 146.98683 | 2399 ft | 32 kts | 285° |
| 2026-04-28 10:50 | -38.08892 | 146.96576 | 464 ft | 289 kts | 282° |
| 2026-04-28 10:50 | -38.08061 | 146.95147 | 1549 ft | 234 kts | 54° |
| 2026-04-28 10:51 | -38.09024 | 146.96750 | 407 ft | 279 kts | 84° |
| 2026-04-28 10:51 | -38.08531 | 146.96327 | 387 ft | 258 kts | 173° |
| 2026-04-28 10:51 | -38.08713 | 146.98706 | 1419 ft | 238 kts | 140° |
| 2026-04-28 10:51 | -38.09841 | 146.98772 | 1481 ft | 258 kts | 188° |
| 2026-04-28 10:52 | -38.11638 | 146.98462 | 1899 ft | 255 kts | 186° |
| 2026-04-28 10:52 | -38.13327 | 146.98233 | 2873 ft | 237 kts | 186° |
| 2026-04-28 10:52 | -38.14496 | 146.97053 | 2124 ft | 265 kts | 281° |
| 2026-04-28 10:52 | -38.12719 | 146.96297 | 742 ft | 322 kts | 7° |
| 2026-04-28 10:53 | -38.10473 | 146.96646 | 505 ft | 327 kts | 7° |
| 2026-04-28 10:53 | -38.08322 | 146.96983 | 1321 ft | 148 kts | 7° |
| 2026-04-28 10:53 | -38.08153 | 146.96930 | 5549 ft | 19 kts | 310° |
| 2026-04-28 10:53 | -38.08024 | 146.96828 | 3803 ft | 21 kts | 322° |
| 2026-04-28 10:54 | -38.07818 | 146.95189 | 596 ft | 316 kts | 202° |
| 2026-04-28 10:54 | -38.08796 | 146.96960 | 1180 ft | 166 kts | 96° |
| 2026-04-28 10:54 | -38.08795 | 146.96477 | 1475 ft | 130 kts | 98° |
| 2026-04-28 10:54 | -38.09048 | 146.98627 | 2150 ft | 211 kts | 98° |
| 2026-04-28 10:55 | -38.09068 | 146.98564 | 398 ft | 285 kts | 280° |
| 2026-04-28 10:55 | -38.08798 | 146.96080 | 525 ft | 298 kts | 277° |
| 2026-04-28 10:55 | -38.08527 | 146.94091 | 3129 ft | 206 kts | 285° |
| 2026-04-28 10:55 | -38.08696 | 146.95159 | 449 ft | 296 kts | 100° |
| 2026-04-28 10:56 | -38.09016 | 146.97692 | 639 ft | 286 kts | 99° |
| 2026-04-28 10:56 | -38.09142 | 146.98381 | 4527 ft | 10 kts | 140° |
| 2026-04-28 10:56 | -38.09161 | 146.98437 | 3105 ft | 4 kts | 192° |
| 2026-04-28 10:56 | -38.08940 | 146.96866 | 402 ft | 288 kts | 280° |
| 2026-04-28 10:57 | -38.08079 | 146.95174 | 1469 ft | 240 kts | 39° |
| 2026-04-28 10:57 | -38.08991 | 146.96571 | 339 ft | 277 kts | 109° |
| 2026-04-28 10:57 | -38.08270 | 146.96483 | 470 ft | 267 kts | 221° |
| 2026-04-28 10:57 | -38.08567 | 146.97668 | 915 ft | 239 kts | 87° |
| 2026-04-28 10:58 | -38.09986 | 146.98372 | 691 ft | 264 kts | 189° |
| 2026-04-28 10:58 | -38.11803 | 146.97978 | 724 ft | 274 kts | 187° |
| 2026-04-28 10:58 | -38.13570 | 146.97332 | 1070 ft | 263 kts | 246° |
| 2026-04-28 10:58 | -38.12378 | 146.96399 | 765 ft | 282 kts | 7° |
| 2026-04-28 10:59 | -38.10347 | 146.96703 | 525 ft | 301 kts | 7° |
| 2026-04-28 10:59 | -38.08362 | 146.97027 | 1374 ft | 152 kts | 8° |
| 2026-04-28 10:59 | -38.08199 | 146.97003 | 5136 ft | 15 kts | 320° |
| 2026-04-28 10:59 | -38.08087 | 146.96921 | 2799 ft | 27 kts | 330° |
| 2026-04-28 11:00 | -38.08014 | 146.95130 | 593 ft | 299 kts | 183° |
| 2026-04-28 11:00 | -38.08837 | 146.96984 | 1612 ft | 112 kts | 97° |
| 2026-04-28 11:00 | -38.08816 | 146.96459 | 1583 ft | 130 kts | 101° |
| 2026-04-28 11:00 | -38.09104 | 146.98630 | 2202 ft | 195 kts | 98° |
| 2026-04-28 11:01 | -38.09138 | 146.98754 | 504 ft | 298 kts | 280° |
| 2026-04-28 11:01 | -38.08824 | 146.96112 | 740 ft | 303 kts | 276° |
| 2026-04-28 11:01 | -38.08611 | 146.93993 | 3248 ft | 209 kts | 275° |
| 2026-04-28 11:01 | -38.08792 | 146.95048 | 436 ft | 304 kts | 98° |
| 2026-04-28 11:02 | -38.09063 | 146.97655 | 628 ft | 298 kts | 98° |
| 2026-04-28 11:02 | -38.09212 | 146.98738 | 4445 ft | 17 kts | 99° |
| 2026-04-28 11:02 | -38.09243 | 146.98828 | 3879 ft | 10 kts | 0° |
| 2026-04-28 11:02 | -38.09038 | 146.97523 | 385 ft | 300 kts | 280° |
| 2026-04-28 11:03 | -38.08302 | 146.95453 | 1549 ft | 243 kts | 17° |
| 2026-04-28 11:03 | -38.09001 | 146.96668 | 399 ft | 269 kts | 110° |
| 2026-04-28 11:03 | -38.08406 | 146.96474 | 424 ft | 250 kts | 206° |
| 2026-04-28 11:03 | -38.08529 | 146.97766 | 714 ft | 236 kts | 86° |
| 2026-04-28 11:04 | -38.09824 | 146.98726 | 820 ft | 255 kts | 187° |
| 2026-04-28 11:04 | -38.11627 | 146.98291 | 945 ft | 276 kts | 189° |
| 2026-04-28 11:04 | -38.13508 | 146.97593 | 1007 ft | 273 kts | 239° |
| 2026-04-28 11:04 | -38.12459 | 146.96192 | 773 ft | 289 kts | 6° |
| 2026-04-28 11:05 | -38.10401 | 146.96572 | 504 ft | 306 kts | 8° |
| 2026-04-28 11:05 | -38.08327 | 146.96961 | 1070 ft | 186 kts | 10° |
| 2026-04-28 11:05 | -38.08085 | 146.96928 | 5234 ft | 26 kts | 324° |
| 2026-04-28 11:05 | -38.07901 | 146.96785 | 3705 ft | 31 kts | 328° |
| 2026-04-28 11:06 | -38.07496 | 146.95123 | 650 ft | 308 kts | 230° |
| 2026-04-28 11:06 | -38.08826 | 146.96208 | 405 ft | 303 kts | 99° |
| 2026-04-28 11:06 | -38.08904 | 146.96699 | 3624 ft | 162 kts | 279° |
| 2026-04-28 11:06 | -38.09083 | 146.97794 | 482 ft | 301 kts | 99° |
| 2026-04-28 11:07 | -38.09374 | 146.99580 | 2511 ft | 72 kts | 98° |
| 2026-04-28 11:07 | -38.09046 | 146.97502 | 521 ft | 302 kts | 280° |
| 2026-04-28 11:07 | -38.08646 | 146.94917 | 1097 ft | 255 kts | 280° |
| 2026-04-28 11:07 | -38.08539 | 146.93637 | 1293 ft | 180 kts | 103° |
| 2026-04-28 11:08 | -38.08866 | 146.96081 | 482 ft | 295 kts | 96° |
| 2026-04-28 11:08 | -38.09112 | 146.98418 | 1875 ft | 101 kts | 98° |
| 2026-04-28 11:08 | -38.09155 | 146.98594 | 4605 ft | 10 kts | 105° |
| 2026-04-28 11:08 | -38.09136 | 146.98484 | 1071 ft | 186 kts | 282° |
| 2026-04-28 11:09 | -38.08839 | 146.96034 | 462 ft | 296 kts | 281° |
| 2026-04-28 11:09 | -38.07917 | 146.95241 | 1004 ft | 233 kts | 102° |
| 2026-04-28 11:09 | -38.08951 | 146.96992 | 402 ft | 279 kts | 56° |
| 2026-04-28 11:09 | -38.08677 | 146.96255 | 421 ft | 264 kts | 152° |
| 2026-04-28 11:10 | -38.08325 | 146.98085 | 992 ft | 247 kts | 104° |
| 2026-04-28 11:10 | -38.09885 | 146.98877 | 1005 ft | 258 kts | 168° |
| 2026-04-28 11:10 | -38.11616 | 146.99325 | 1249 ft | 246 kts | 179° |
| 2026-04-28 11:10 | -38.13072 | 146.98382 | 1276 ft | 257 kts | 236° |
| 2026-04-28 11:11 | -38.13341 | 146.96199 | 1708 ft | 236 kts | 280° |
| 2026-04-28 11:11 | -38.13787 | 146.94775 | 1241 ft | 252 kts | 152° |
| 2026-04-28 11:11 | -38.13101 | 146.96279 | 546 ft | 288 kts | 5° |
| 2026-04-28 11:11 | -38.11063 | 146.96505 | 492 ft | 297 kts | 7° |
| 2026-04-28 11:12 | -38.08982 | 146.96840 | 433 ft | 306 kts | 7° |
| 2026-04-28 11:12 | -38.08274 | 146.96924 | 4282 ft | 17 kts | 214° |
| 2026-04-28 11:12 | -38.08408 | 146.96839 | 4556 ft | 11 kts | 239° |
| 2026-04-28 11:12 | -38.07783 | 146.96158 | 737 ft | 294 kts | 294° |
| 2026-04-28 11:13 | -38.08724 | 146.96194 | 469 ft | 277 kts | 99° |
| 2026-04-28 11:13 | -38.08787 | 146.96551 | 3016 ft | 148 kts | 278° |
| 2026-04-28 11:13 | -38.08990 | 146.97953 | 889 ft | 238 kts | 99° |
| 2026-04-28 11:13 | -38.09205 | 146.99176 | 1005 ft | 190 kts | 281° |
| 2026-04-28 11:14 | -38.08873 | 146.96723 | 800 ft | 286 kts | 276° |
| 2026-04-28 11:14 | -38.08640 | 146.94596 | 2940 ft | 189 kts | 282° |
| 2026-04-28 11:14 | -38.08710 | 146.95188 | 458 ft | 302 kts | 100° |
| 2026-04-28 11:14 | -38.09016 | 146.97776 | 639 ft | 296 kts | 99° |
| 2026-04-28 11:15 | -38.09170 | 146.98832 | 4497 ft | 18 kts | 107° |
| 2026-04-28 11:15 | -38.09205 | 146.98947 | 3966 ft | 16 kts | 55° |
| 2026-04-28 11:15 | -38.09032 | 146.97669 | 450 ft | 304 kts | 280° |
| 2026-04-28 11:15 | -38.08639 | 146.95075 | 1149 ft | 272 kts | 311° |
| 2026-04-28 11:16 | -38.08345 | 146.95974 | 509 ft | 290 kts | 149° |
| 2026-04-28 11:16 | -38.08268 | 146.97278 | 460 ft | 283 kts | 317° |
| 2026-04-28 11:16 | -38.08938 | 146.96927 | 523 ft | 266 kts | 67° |
| 2026-04-28 11:16 | -38.08658 | 146.98884 | 1049 ft | 266 kts | 156° |
| 2026-04-28 11:17 | -38.09505 | 146.97350 | 931 ft | 282 kts | 282° |
| 2026-04-28 11:17 | -38.09142 | 146.94889 | 1044 ft | 283 kts | 296° |
| 2026-04-28 11:17 | -38.07475 | 146.93816 | 1060 ft | 279 kts | 357° |
| 2026-04-28 11:17 | -38.05758 | 146.94677 | 1137 ft | 275 kts | 57° |
| 2026-04-28 11:18 | -38.05918 | 146.96917 | 917 ft | 286 kts | 134° |
| 2026-04-28 11:18 | -38.07831 | 146.97107 | 534 ft | 299 kts | 191° |
| 2026-04-28 11:18 | -38.08718 | 146.95465 | 519 ft | 282 kts | 280° |
| 2026-04-28 11:18 | -38.08709 | 146.95213 | 2917 ft | 134 kts | 103° |
| 2026-04-28 11:19 | -38.08980 | 146.97128 | 408 ft | 291 kts | 74° |
| 2026-04-28 11:19 | -38.07783 | 146.96745 | 411 ft | 276 kts | 251° |
| 2026-04-28 11:19 | -38.08968 | 146.97172 | 501 ft | 265 kts | 99° |
| 2026-04-28 11:19 | -38.09980 | 146.97165 | 1059 ft | 244 kts | 269° |
| 2026-04-28 11:20 | -38.10021 | 146.94925 | 1262 ft | 256 kts | 268° |
| 2026-04-28 11:20 | -38.10111 | 146.92741 | 2153 ft | 238 kts | 275° |
| 2026-04-28 11:20 | -38.08707 | 146.92113 | 1434 ft | 280 kts | 12° |
| 2026-04-28 11:20 | -38.06774 | 146.92591 | 1365 ft | 282 kts | 12° |
| 2026-04-28 11:21 | -38.05318 | 146.94017 | 1261 ft | 285 kts | 66° |
| 2026-04-28 11:21 | -38.05368 | 146.96477 | 1119 ft | 289 kts | 119° |
| 2026-04-28 11:21 | -38.07150 | 146.97263 | 625 ft | 304 kts | 191° |
| 2026-04-28 11:21 | -38.08774 | 146.96160 | 480 ft | 288 kts | 278° |
| 2026-04-28 11:22 | -38.08633 | 146.94960 | 3093 ft | 130 kts | 102° |
| 2026-04-28 11:22 | -38.08904 | 146.96517 | 436 ft | 295 kts | 99° |
| 2026-04-28 11:22 | -38.07760 | 146.97212 | 441 ft | 279 kts | 289° |
| 2026-04-28 11:22 | -38.08882 | 146.96653 | 510 ft | 266 kts | 111° |
| 2026-04-28 11:23 | -38.09821 | 146.98192 | 844 ft | 262 kts | 186° |
| 2026-04-28 11:23 | -38.11706 | 146.97881 | 536 ft | 285 kts | 187° |
| 2026-04-28 11:23 | -38.13192 | 146.97627 | 2493 ft | 15 kts | 236° |
| 2026-04-28 11:23 | -38.13340 | 146.96609 | 1305 ft | 202 kts | 265° |
| 2026-04-28 11:24 | -38.12074 | 146.96129 | 551 ft | 276 kts | 22° |
| 2026-04-28 11:24 | -38.10162 | 146.96664 | 503 ft | 286 kts | 8° |
| 2026-04-28 11:24 | -38.08192 | 146.97009 | 835 ft | 229 kts | 8° |
| 2026-04-28 11:24 | -38.08022 | 146.97663 | 2949 ft | 137 kts | 92° |
| 2026-04-28 11:25 | -38.07629 | 146.99477 | 846 ft | 283 kts | 355° |
| 2026-04-28 11:25 | -38.07677 | 146.97607 | 1002 ft | 287 kts | 227° |
| 2026-04-28 11:25 | -38.09541 | 146.96774 | 818 ft | 298 kts | 173° |
| 2026-04-28 11:25 | -38.11500 | 146.97343 | 1168 ft | 291 kts | 165° |
| 2026-04-28 11:26 | -38.13336 | 146.97178 | 1191 ft | 289 kts | 251° |
| 2026-04-28 11:26 | -38.11983 | 146.96203 | 677 ft | 294 kts | 10° |
| 2026-04-28 11:26 | -38.09947 | 146.96649 | 531 ft | 299 kts | 9° |
| 2026-04-28 11:26 | -38.08081 | 146.97035 | 1668 ft | 86 kts | 8° |
| 2026-04-28 11:27 | -38.07913 | 146.97815 | 2197 ft | 153 kts | 77° |
| 2026-04-28 11:27 | -38.07035 | 146.98567 | 1565 ft | 250 kts | 287° |
| 2026-04-28 11:27 | -38.07940 | 146.96882 | 1633 ft | 266 kts | 204° |
| 2026-04-28 11:27 | -38.09646 | 146.95966 | 1847 ft | 262 kts | 202° |
| 2026-04-28 11:28 | -38.11293 | 146.95128 | 2361 ft | 249 kts | 202° |
| 2026-04-28 11:28 | -38.12951 | 146.94588 | 2530 ft | 254 kts | 159° |
| 2026-04-28 11:28 | -38.13061 | 146.96563 | 1489 ft | 287 kts | 42° |
| 2026-04-28 11:28 | -38.11161 | 146.97151 | 1211 ft | 286 kts | 0° |
| 2026-04-28 11:29 | -38.09221 | 146.97226 | 1312 ft | 276 kts | 15° |
| 2026-04-28 11:29 | -38.07836 | 146.98815 | 1278 ft | 276 kts | 61° |
| 2026-04-28 11:29 | -38.07041 | 147.01001 | 1367 ft | 277 kts | 67° |
| 2026-04-28 11:29 | -38.06417 | 147.03323 | 1519 ft | 281 kts | 74° |
| 2026-04-28 11:30 | -38.05932 | 147.05768 | 1801 ft | 290 kts | 76° |
| 2026-04-28 11:30 | -38.05110 | 147.10864 | 1969 ft | 297 kts | 80° |
| 2026-04-28 11:30 | -38.04831 | 147.13433 | 2369 ft | 289 kts | 83° |
| 2026-04-28 11:31 | -38.04653 | 147.15984 | 2400 ft | 293 kts | 84° |
| 2026-04-28 11:31 | -38.04490 | 147.18616 | 1835 ft | 305 kts | 84° |
| 2026-04-28 11:31 | -38.04343 | 147.21289 | 1867 ft | 296 kts | 92° |
| 2026-04-28 11:31 | -38.05000 | 147.23700 | 1899 ft | 293 kts | 126° |
| 2026-04-28 11:32 | -38.06606 | 147.25291 | 1638 ft | 299 kts | 157° |
| 2026-04-28 11:32 | -38.08613 | 147.25466 | 1512 ft | 296 kts | 196° |
| 2026-04-28 11:32 | -38.10253 | 147.23956 | 1222 ft | 299 kts | 237° |
| 2026-04-28 11:32 | -38.10680 | 147.21409 | 764 ft | 304 kts | 278° |
| 2026-04-28 11:33 | -38.10330 | 147.18755 | 471 ft | 304 kts | 279° |
| 2026-04-28 11:33 | -38.09984 | 147.16102 | 211 ft | 303 kts | 279° |
| 2026-04-28 11:33 | -38.09569 | 147.13581 | 586 ft | 254 kts | 313° |
| 2026-04-28 11:33 | -38.08711 | 147.14072 | 964 ft | 154 kts | 97° |
| 2026-04-28 11:34 | -38.08853 | 147.15335 | 963 ft | 136 kts | 96° |
| 2026-04-28 11:34 | -38.08982 | 147.16519 | 969 ft | 135 kts | 95° |
| 2026-04-28 11:34 | -38.09195 | 147.17672 | 850 ft | 134 kts | 125° |
| 2026-04-28 11:34 | -38.09954 | 147.17725 | 497 ft | 124 kts | 233° |
| 2026-04-28 11:35 | -38.10035 | 147.16651 | 254 ft | 128 kts | 278° |
| 2026-04-28 11:35 | -38.09904 | 147.15539 | 101 ft | 122 kts | 279° |
| 2026-04-28 11:35 | -38.09785 | 147.14588 | 21 ft | 91 kts | 279° |
| 2026-04-28 11:35 | -38.09675 | 147.13717 | 76 ft | 128 kts | 279° |
| 2026-04-28 11:36 | -38.09496 | 147.12277 | 432 ft | 194 kts | 279° |
| 2026-04-28 11:36 | -38.08944 | 147.10643 | 1280 ft | 220 kts | 327° |
| 2026-04-28 11:36 | -38.07369 | 147.10402 | 2082 ft | 248 kts | 9° |
| 2026-04-28 11:36 | -38.05693 | 147.11204 | 2440 ft | 275 kts | 44° |
| 2026-04-28 11:37 | -38.04999 | 147.13518 | 2450 ft | 293 kts | 88° |
| 2026-04-28 11:37 | -38.05226 | 147.16050 | 2475 ft | 292 kts | 97° |
| 2026-04-28 11:37 | -38.05521 | 147.18602 | 2425 ft | 294 kts | 97° |
| 2026-04-28 11:37 | -38.05839 | 147.21188 | 2219 ft | 299 kts | 98° |
| 2026-04-28 11:38 | -38.06321 | 147.23753 | 2066 ft | 301 kts | 117° |
| 2026-04-28 11:38 | -38.07974 | 147.25295 | 1688 ft | 308 kts | 170° |
| 2026-04-28 11:38 | -38.09964 | 147.24508 | 1198 ft | 313 kts | 225° |
| 2026-04-28 11:38 | -38.10782 | 147.22035 | 806 ft | 312 kts | 269° |
| 2026-04-28 11:39 | -38.10500 | 147.19302 | 516 ft | 309 kts | 280° |
| 2026-04-28 11:39 | -38.10041 | 147.16666 | 321 ft | 305 kts | 279° |
| 2026-04-28 11:39 | -38.09710 | 147.14057 | 328 ft | 288 kts | 281° |
| 2026-04-28 11:39 | -38.08828 | 147.13976 | 1033 ft | 167 kts | 90° |
| 2026-04-28 11:40 | -38.08969 | 147.15304 | 1025 ft | 139 kts | 95° |
| 2026-04-28 11:40 | -38.09091 | 147.16506 | 1018 ft | 138 kts | 96° |
| 2026-04-28 11:40 | -38.09227 | 147.17706 | 964 ft | 133 kts | 107° |
| 2026-04-28 11:40 | -38.09656 | 147.18137 | 725 ft | 122 kts | 182° |
| 2026-04-28 11:41 | -38.10119 | 147.17385 | 403 ft | 122 kts | 273° |
| 2026-04-28 11:41 | -38.09995 | 147.16297 | 233 ft | 127 kts | 279° |
| 2026-04-28 11:41 | -38.09861 | 147.15204 | 57 ft | 118 kts | 279° |
| 2026-04-28 11:41 | -38.09750 | 147.14323 | 27 ft | 86 kts | 278° |
| 2026-04-28 11:42 | -38.09675 | 147.13698 | 28 ft | 30 kts | 279° |
| 2026-04-28 11:42 | -38.09667 | 147.13510 | 28 ft | 13 kts | 228° |
| 2026-04-28 11:42 | -38.09719 | 147.13490 | 25 ft | 8 kts | 189° |
| 2026-04-28 11:42 | -38.09763 | 147.13481 | 25 ft | 7 kts | 189° |
| 2026-04-28 11:43 | -38.09824 | 147.13468 | 26 ft | 9 kts | 188° |
| 2026-04-28 11:43 | -38.09862 | 147.13502 | 26 ft | 8 kts | 97° |
| 2026-04-28 11:43 | -38.09870 | 147.13577 | 27 ft | 7 kts | 99° |
| 2026-04-28 11:43 | -38.09888 | 147.13597 | 26 ft | 4 kts | 190° |
| 2026-04-28 11:44 | -38.09900 | 147.13594 | 26 ft | 0 kts | 188° |
| 2026-04-28 11:44 | -38.09901 | 147.13594 | 26 ft | 0 kts | 188° |